Time;durP1;ratioP1;P1;durP2;ratioP2;P2;SDS_P1;SDS_P2;PMS_P1;PMS_P2;Temp;Humidity;BMP_temperature;BMP_pressure;BME280_temperature;BME280_humidity;BME280_pressure;Samples;Min_cycle;Max_cycle;Signal;HPM_P1;HPM_P2
2021/06/30 00:01:43;;;;;;;15.77;11.27;;;;;;;22.11;68.15;100528.53;6153251;23;20088;-81
2021/06/30 00:04:08;;;;;;;17.48;12.70;;;;;;;22.07;67.99;100526.44;6153221;23;20075;-81
2021/06/30 00:06:34;;;;;;;17.23;12.45;;;;;;;22.06;68.33;100530.25;6153520;23;20056;-81
2021/06/30 00:08:59;;;;;;;17.95;13.20;;;;;;;22.06;67.98;100519.28;6153253;23;20001;-81
2021/06/30 00:11:26;;;;;;;20.23;13.10;;;;;;;22.06;68.19;100527.50;6153565;23;20079;-81
2021/06/30 00:13:52;;;;;;;20.23;13.20;;;;;;;22.00;68.50;100519.09;6153500;23;20010;-81
2021/06/30 00:16:17;;;;;;;14.82;13.30;;;;;;;22.01;68.49;100520.78;6153468;23;20080;-81
2021/06/30 00:18:43;;;;;;;20.38;13.32;;;;;;;22.00;68.63;100513.59;6153099;23;20089;-81
2021/06/30 00:21:08;;;;;;;20.10;16.10;;;;;;;21.90;69.09;100510.50;6152919;23;20042;-81
2021/06/30 00:23:33;;;;;;;18.83;15.27;;;;;;;21.95;69.14;100504.38;6126975;23;20020;-81
2021/06/30 00:25:59;;;;;;;22.00;15.18;;;;;;;21.91;69.26;100506.69;6153024;23;20096;-81
2021/06/30 00:28:24;;;;;;;20.50;15.05;;;;;;;21.93;69.28;100515.53;6153281;23;20465;-81
2021/06/30 00:30:50;;;;;;;25.25;16.90;;;;;;;21.90;69.63;100513.22;6126623;23;20037;-81
2021/06/30 00:33:15;;;;;;;21.73;16.63;;;;;;;21.79;70.09;100505.69;6153083;23;20012;-81
2021/06/30 00:35:40;;;;;;;21.60;17.80;;;;;;;21.74;70.30;100500.03;6153641;23;20005;-81
2021/06/30 00:38:06;;;;;;;27.13;17.52;;;;;;;21.71;70.65;100511.41;6126511;23;20096;-81
2021/06/30 00:40:31;;;;;;;22.88;17.98;;;;;;;21.74;70.69;100510.97;6153223;23;20338;-81
2021/06/30 00:42:57;;;;;;;22.50;17.88;;;;;;;21.73;70.82;100518.34;6126099;23;20009;-81
2021/06/30 00:45:23;;;;;;;23.23;17.77;;;;;;;21.78;70.58;100524.00;6153098;23;20010;-81
2021/06/30 00:47:48;;;;;;;24.02;18.23;;;;;;;21.80;70.75;100516.44;6153109;23;20005;-81
2021/06/30 00:50:16;;;;;;;29.05;19.48;;;;;;;21.67;71.57;100515.59;6153327;23;20056;-81
2021/06/30 00:52:41;;;;;;;29.17;19.48;;;;;;;21.80;70.70;100508.22;6153089;23;20017;-81
2021/06/30 00:55:07;;;;;;;23.55;18.08;;;;;;;21.84;70.72;100505.03;6152847;23;20089;-81
2021/06/30 00:57:33;;;;;;;34.88;21.33;;;;;;;21.80;71.07;100512.84;6152922;23;20013;-81
2021/06/30 00:59:59;;;;;;;34.20;20.35;;;;;;;21.85;70.84;100523.97;6153065;23;20005;-81
2021/06/30 01:02:24;;;;;;;30.38;21.70;;;;;;;21.83;71.28;100520.63;6152606;23;20020;-81
2021/06/30 01:04:50;;;;;;;28.33;20.73;;;;;;;21.85;70.89;100520.41;6152994;23;20016;-81
2021/06/30 01:07:16;;;;;;;25.95;19.02;;;;;;;21.87;71.13;100523.78;6152727;23;20532;-81
2021/06/30 01:09:42;;;;;;;26.83;19.67;;;;;;;21.91;70.76;100514.06;6152906;23;20010;-81
2021/06/30 01:12:07;;;;;;;32.22;19.25;;;;;;;21.97;70.46;100516.78;6126926;23;20012;-81
2021/06/30 01:14:34;;;;;;;25.85;19.77;;;;;;;21.92;70.70;100516.59;6152741;23;20005;-81
2021/06/30 01:17:02;;;;;;;33.08;22.13;;;;;;;21.89;70.54;100508.81;6126305;23;20013;-81
2021/06/30 01:19:28;;;;;;;33.15;20.48;;;;;;;21.91;70.58;100501.22;6152236;23;20001;-81
2021/06/30 01:21:54;;;;;;;29.23;20.15;;;;;;;21.91;70.28;100495.75;6152616;23;20447;-81
2021/06/30 01:24:20;;;;;;;28.67;19.77;;;;;;;21.89;70.47;100508.81;6152711;23;20009;-81
2021/06/30 01:26:47;;;;;;;24.55;18.45;;;;;;;21.88;70.25;100500.81;6121563;23;20438;-81
2021/06/30 01:29:13;;;;;;;30.50;20.63;;;;;;;21.90;70.20;100494.06;6150956;23;20010;-81
2021/06/30 01:31:40;;;;;;;27.48;20.35;;;;;;;21.85;69.94;100490.28;6152256;23;20053;-81
2021/06/30 01:34:06;;;;;;;29.60;19.27;;;;;;;21.84;70.31;100489.47;6152705;23;20012;-81
2021/06/30 01:36:45;;;;;;;31.00;18.55;;;;;;;21.88;69.99;100487.97;6152568;23;20330;-81
2021/06/30 01:39:10;;;;;;;24.05;17.45;;;;;;;21.70;70.27;100483.19;6152475;23;20009;-81
2021/06/30 01:41:36;;;;;;;25.08;17.38;;;;;;;21.75;70.13;100488.84;6126798;23;20010;-81
2021/06/30 01:44:01;;;;;;;27.10;18.52;;;;;;;21.78;69.74;100488.41;6152463;23;20024;-81
2021/06/30 01:46:29;;;;;;;26.02;18.80;;;;;;;21.83;69.42;100486.94;6152956;23;20017;-81
2021/06/30 01:48:54;;;;;;;22.00;16.75;;;;;;;21.83;69.11;100487.78;6152669;23;20079;-81
2021/06/30 01:51:20;;;;;;;23.10;17.00;;;;;;;21.69;69.17;100492.44;6152278;23;20006;-81
2021/06/30 01:53:45;;;;;;;22.20;17.08;;;;;;;21.59;69.13;100492.06;6125903;23;20013;-81
2021/06/30 01:56:10;;;;;;;25.95;16.42;;;;;;;21.60;69.27;100493.72;6152775;23;20175;-81
2021/06/30 01:58:36;;;;;;;29.67;17.40;;;;;;;21.65;68.68;100488.47;6125718;23;20504;-81
2021/06/30 02:01:02;;;;;;;23.42;15.95;;;;;;;21.60;68.50;100479.22;6152564;23;20021;-81
2021/06/30 02:03:27;;;;;;;22.48;15.95;;;;;;;21.65;68.28;100483.00;6126333;23;20303;-81
2021/06/30 02:05:52;;;;;;;19.95;15.52;;;;;;;21.62;68.07;100474.38;6152478;23;20381;-80
2021/06/30 02:08:18;;;;;;;18.83;15.52;;;;;;;21.60;67.79;100473.75;6152882;23;20322;-81
2021/06/30 02:10:43;;;;;;;18.55;14.43;;;;;;;21.50;68.04;100469.56;6152648;23;20075;-81
2021/06/30 02:13:09;;;;;;;19.20;15.00;;;;;;;21.42;68.61;100482.63;6152503;23;20029;-81
2021/06/30 02:15:38;;;;;;;17.83;14.40;;;;;;;21.52;68.15;100475.66;6152708;23;20009;-81
2021/06/30 02:18:03;;;;;;;22.95;15.63;;;;;;;21.48;68.02;100474.38;6127548;23;20099;-80
2021/06/30 02:20:29;;;;;;;23.73;14.30;;;;;;;21.44;68.30;100486.81;6153958;23;20010;-80
2021/06/30 02:22:56;;;;;;;30.00;16.60;;;;;;;21.50;68.16;100487.88;6154036;23;20005;-80
2021/06/30 02:25:28;;;;;;;27.45;15.50;;;;;;;21.41;68.84;100489.16;6127815;23;20036;-81
2021/06/30 02:27:54;;;;;;;26.88;16.27;;;;;;;21.44;68.71;100489.56;6154297;23;20056;-81
2021/06/30 02:30:23;;;;;;;27.10;15.40;;;;;;;21.47;69.09;100494.59;6154366;23;20013;-81
2021/06/30 02:32:48;;;;;;;23.88;17.42;;;;;;;21.47;69.24;100491.03;6127427;23;20009;-81
2021/06/30 02:35:17;;;;;;;25.45;16.52;;;;;;;21.51;69.01;100500.50;6153969;23;20434;-81
2021/06/30 02:37:44;;;;;;;50.30;19.33;;;;;;;21.46;69.68;100494.84;6154393;23;20507;-80
2021/06/30 02:40:12;;;;;;;26.08;17.30;;;;;;;21.52;69.32;100494.81;6127619;23;20059;-80
2021/06/30 02:42:39;;;;;;;23.65;16.38;;;;;;;21.56;69.28;100487.03;6153993;23;20009;-81
2021/06/30 02:45:07;;;;;;;27.13;18.38;;;;;;;21.46;69.80;100487.47;6153897;23;20009;-81
2021/06/30 02:47:33;;;;;;;29.05;17.90;;;;;;;21.34;70.32;100480.94;6153687;23;20005;-81
2021/06/30 02:49:58;;;;;;;26.73;18.25;;;;;;;21.34;70.54;100476.28;6153921;23;20001;-80
2021/06/30 02:52:23;;;;;;;37.67;20.55;;;;;;;21.36;70.65;100481.56;6153788;23;20460;-81
2021/06/30 02:54:49;;;;;;;31.92;20.23;;;;;;;21.37;70.51;100483.28;6154219;23;20375;-81
2021/06/30 02:57:14;;;;;;;34.40;20.58;;;;;;;21.37;70.65;100479.69;6153991;23;20307;-81
2021/06/30 02:59:39;;;;;;;29.33;20.55;;;;;;;21.38;70.30;100484.09;6153586;23;20466;-81
2021/06/30 03:02:05;;;;;;;27.33;20.30;;;;;;;21.44;70.01;100486.00;6154111;23;20005;-81
2021/06/30 03:04:30;;;;;;;33.15;22.15;;;;;;;21.43;70.17;100492.53;6154098;23;20028;-81
2021/06/30 03:06:56;;;;;;;32.22;21.10;;;;;;;21.42;70.25;100488.94;6153566;23;20005;-81
2021/06/30 03:09:22;;;;;;;37.00;23.23;;;;;;;21.37;70.59;100496.13;6153791;23;20012;-81
2021/06/30 03:11:50;;;;;;;38.58;22.27;;;;;;;21.40;70.15;100499.25;6153885;23;20059;-81
2021/06/30 03:14:16;;;;;;;45.42;24.42;;;;;;;21.37;70.49;100502.41;6153674;23;20012;-80
2021/06/30 03:16:42;;;;;;;40.47;23.88;;;;;;;21.32;70.64;100513.94;6153652;23;20498;-80
2021/06/30 03:19:07;;;;;;;40.90;23.88;;;;;;;21.35;70.72;100509.97;6126595;23;20033;-81
2021/06/30 03:21:32;;;;;;;45.67;26.45;;;;;;;21.41;70.62;100511.88;6127069;23;20457;-81
2021/06/30 03:23:58;;;;;;;47.30;24.05;;;;;;;21.42;70.59;100512.72;6153666;23;20013;-81
2021/06/30 03:26:23;;;;;;;33.97;20.33;;;;;;;21.42;70.51;100513.56;6153602;23;20009;-81
2021/06/30 03:28:48;;;;;;;29.33;18.98;;;;;;;21.37;70.47;100513.38;6152588;23;20017;-81
2021/06/30 03:31:14;;;;;;;31.85;19.23;;;;;;;21.28;70.71;100509.97;6153558;23;20068;-81
2021/06/30 03:33:40;;;;;;;34.83;18.48;;;;;;;21.25;70.71;100517.75;6153100;23;20060;-81
2021/06/30 03:36:05;;;;;;;25.00;17.63;;;;;;;21.16;70.86;100513.56;6153704;23;20005;-81
2021/06/30 03:38:32;;;;;;;25.60;16.40;;;;;;;21.11;70.69;100514.19;6153085;23;20021;-81
2021/06/30 03:40:57;;;;;;;26.27;15.55;;;;;;;21.28;69.71;100509.13;6153603;23;20490;-81
2021/06/30 03:43:23;;;;;;;25.20;13.30;;;;;;;21.20;69.41;100514.81;6153261;23;20125;-81
2021/06/30 03:45:48;;;;;;;19.60;13.10;;;;;;;21.19;69.41;100510.41;6152714;23;20017;-81
2021/06/30 03:48:13;;;;;;;21.13;13.90;;;;;;;21.18;69.06;100512.31;6126363;23;20013;-81
2021/06/30 03:50:39;;;;;;;24.85;13.00;;;;;;;21.21;68.64;100511.88;6153066;23;20442;-80
2021/06/30 03:53:04;;;;;;;17.63;11.95;;;;;;;21.24;68.25;100502.38;6126357;23;20009;-81
2021/06/30 03:55:30;;;;;;;21.55;12.25;;;;;;;21.25;68.43;100509.56;6153131;23;20005;-81
2021/06/30 03:57:55;;;;;;;22.77;12.60;;;;;;;21.23;68.26;100504.28;6126232;23;20156;-81
2021/06/30 04:00:21;;;;;;;21.95;11.57;;;;;;;21.17;68.00;100515.22;6153017;23;20020;-81
2021/06/30 04:02:46;;;;;;;19.95;12.90;;;;;;;21.15;68.09;100509.13;6126676;23;20013;-81
2021/06/30 04:05:11;;;;;;;14.10;10.90;;;;;;;21.08;67.79;100507.22;6153392;23;20016;-80
2021/06/30 04:07:36;;;;;;;18.55;11.85;;;;;;;21.08;67.75;100507.22;6153297;23;20076;-81
2021/06/30 04:10:04;;;;;;;20.95;11.30;;;;;;;21.04;67.86;100505.13;6126861;23;20084;-81
2021/06/30 04:12:29;;;;;;;24.70;11.57;;;;;;;20.97;67.50;100505.16;6153312;23;20005;-80
2021/06/30 04:14:55;;;;;;;16.10;11.00;;;;;;;21.03;67.18;100498.84;6153320;23;20331;-81
2021/06/30 04:17:20;;;;;;;17.95;11.05;;;;;;;21.07;67.01;100499.25;6153785;23;20051;-81
2021/06/30 04:19:45;;;;;;;22.67;11.43;;;;;;;21.06;66.65;100501.16;6152847;23;20006;-80
2021/06/30 04:22:11;;;;;;;15.57;11.43;;;;;;;20.95;66.37;100492.72;6126776;23;20010;-81
2021/06/30 04:24:36;;;;;;;27.17;11.50;;;;;;;20.97;66.28;100496.94;6153073;23;20098;-81
2021/06/30 04:27:01;;;;;;;16.88;10.98;;;;;;;20.82;66.37;100504.50;6153315;23;20450;-81
2021/06/30 04:29:27;;;;;;;20.15;10.90;;;;;;;20.96;66.18;100497.13;6153261;23;20028;-81
2021/06/30 04:31:52;;;;;;;15.23;10.27;;;;;;;20.94;66.15;100488.31;6153703;23;20349;-81
2021/06/30 04:34:17;;;;;;;18.10;10.63;;;;;;;20.95;66.07;100487.25;6126359;23;20013;-80
2021/06/30 04:36:43;;;;;;;19.75;10.93;;;;;;;20.92;66.11;100485.78;6153168;23;20350;-81
2021/06/30 04:39:09;;;;;;;17.65;10.45;;;;;;;20.93;65.74;100486.63;6152384;23;20449;-81
2021/06/30 04:41:34;;;;;;;17.98;10.45;;;;;;;20.86;65.83;100492.09;6153600;23;20005;-81
2021/06/30 04:43:59;;;;;;;21.10;11.25;;;;;;;20.88;65.71;100490.84;6126364;23;20129;-80
2021/06/30 04:46:25;;;;;;;16.00;10.10;;;;;;;20.92;65.45;100490.41;6153033;23;20061;-80
2021/06/30 04:48:50;;;;;;;16.00;10.15;;;;;;;20.87;65.77;100485.56;6153526;23;20001;-81
2021/06/30 04:51:15;;;;;;;17.23;10.50;;;;;;;20.95;65.32;100481.78;6153151;23;20434;-81
2021/06/30 04:53:43;;;;;;;21.52;10.85;;;;;;;21.04;64.88;100488.72;6153309;23;20039;-81
2021/06/30 04:56:08;;;;;;;18.40;11.38;;;;;;;21.18;64.53;100486.81;6126636;23;20469;-81
2021/06/30 04:58:33;;;;;;;18.70;10.40;;;;;;;21.23;64.14;100481.56;6153310;23;20005;-81
2021/06/30 05:00:59;;;;;;;19.27;11.20;;;;;;;21.32;63.70;100492.06;6153272;23;20016;-81
2021/06/30 05:03:27;;;;;;;24.25;10.98;;;;;;;21.38;64.03;100492.31;6153364;23;20010;-81
2021/06/30 05:05:54;;;;;;;22.20;10.65;;;;;;;21.50;63.58;100493.34;6154832;23;20076;-81
2021/06/30 05:08:20;;;;;;;16.45;11.45;;;;;;;21.66;63.12;100497.50;6127010;23;20017;-80
2021/06/30 05:10:45;;;;;;;20.80;11.05;;;;;;;21.70;63.08;100498.75;6153326;23;20013;-81
2021/06/30 05:13:10;;;;;;;18.73;10.68;;;;;;;21.75;62.57;100498.97;6153591;23;20375;-81
2021/06/30 05:15:36;;;;;;;19.10;12.20;;;;;;;21.81;62.56;100498.09;6153230;23;20095;-81
2021/06/30 05:18:01;;;;;;;20.58;11.88;;;;;;;21.85;61.97;100488.38;6126735;23;20480;-81
2021/06/30 05:20:26;;;;;;;24.33;11.70;;;;;;;21.92;61.64;100491.13;6153343;23;20033;-81
2021/06/30 05:22:52;;;;;;;18.10;11.15;;;;;;;21.92;61.71;100497.44;6153486;23;20456;-81
2021/06/30 05:25:17;;;;;;;22.50;11.85;;;;;;;21.92;62.04;100494.69;6153239;23;20430;-81
2021/06/30 05:27:43;;;;;;;25.02;12.02;;;;;;;21.92;62.19;100481.00;6152797;23;20018;-81
2021/06/30 05:30:09;;;;;;;22.80;12.27;;;;;;;21.96;62.36;100487.72;6126647;23;20035;-81
2021/06/30 05:32:34;;;;;;;18.95;11.48;;;;;;;22.07;61.92;100483.47;6153499;23;20009;-81
2021/06/30 05:34:59;;;;;;;18.98;11.60;;;;;;;22.22;61.97;100480.47;6126972;23;20445;-81
2021/06/30 05:37:25;;;;;;;22.63;11.98;;;;;;;22.29;61.95;100486.78;6153793;23;20338;-81
2021/06/30 05:39:50;;;;;;;22.23;11.90;;;;;;;22.32;61.44;100483.59;6153356;23;20005;-81
2021/06/30 05:42:15;;;;;;;19.20;11.93;;;;;;;22.33;61.50;100470.72;6154034;23;20005;-81
2021/06/30 05:44:41;;;;;;;20.27;12.70;;;;;;;22.33;61.57;100481.69;6153269;23;20013;-81
2021/06/30 05:47:06;;;;;;;18.08;11.57;;;;;;;22.24;61.92;100462.75;6153768;23;20015;-81
2021/06/30 05:49:31;;;;;;;21.63;11.32;;;;;;;22.25;61.72;100469.06;6153335;23;20013;-81
2021/06/30 05:51:57;;;;;;;26.77;13.68;;;;;;;22.27;61.39;100477.91;6153975;23;20036;-81
2021/06/30 05:54:22;;;;;;;26.38;12.27;;;;;;;22.25;62.19;100480.91;6154800;23;20342;-81
2021/06/30 05:56:48;;;;;;;22.63;12.50;;;;;;;22.13;62.14;100473.53;6128237;23;20012;-81
2021/06/30 05:59:13;;;;;;;18.98;13.05;;;;;;;22.22;62.94;100477.72;6128685;23;20069;-80
2021/06/30 06:01:38;;;;;;;28.70;13.07;;;;;;;22.18;62.93;100473.75;6155402;23;20015;-81
2021/06/30 06:04:04;;;;;;;19.75;13.50;;;;;;;22.25;62.35;100469.06;6154888;23;20056;-81
2021/06/30 06:06:29;;;;;;;22.92;12.38;;;;;;;22.25;62.35;100469.06;6129280;23;20012;-81
2021/06/30 06:08:54;;;;;;;20.45;13.05;;;;;;;22.38;62.64;100466.28;6128711;23;20005;-81
2021/06/30 06:11:20;;;;;;;22.80;14.00;;;;;;;22.44;61.82;100464.56;6157889;23;20013;-81
2021/06/30 06:13:45;;;;;;;22.00;13.45;;;;;;;22.49;62.30;100462.81;6154674;23;20012;-81
2021/06/30 06:16:19;;;;;;;17.40;11.52;;;;;;;22.61;61.54;100465.69;6155244;23;20013;-81
2021/06/30 06:18:45;;;;;;;18.77;13.00;;;;;;;22.70;61.56;100463.53;6155036;23;20065;-81
2021/06/30 06:21:10;;;;;;;23.75;14.65;;;;;;;22.79;60.92;100466.84;6154796;23;20037;-81
2021/06/30 06:23:36;;;;;;;17.52;12.82;;;;;;;22.83;61.48;100462.56;6155044;23;20005;-81
2021/06/30 06:26:02;;;;;;;20.65;13.30;;;;;;;22.83;61.22;100451.59;6154540;23;20532;-81
2021/06/30 06:28:32;;;;;;;22.00;14.57;;;;;;;22.70;60.85;100460.78;6128563;23;20072;-81
2021/06/30 06:30:58;;;;;;;22.38;13.70;;;;;;;22.81;61.18;100457.31;6154955;23;20016;-81
2021/06/30 06:33:23;;;;;;;20.67;13.38;;;;;;;22.83;60.92;100460.66;6128276;23;20319;-81
2021/06/30 06:35:49;;;;;;;23.75;13.93;;;;;;;22.90;61.16;100463.38;6154771;23;20010;-81
2021/06/30 06:38:15;;;;;;;22.65;14.43;;;;;;;22.95;60.56;100463.56;6155232;23;20375;-81
2021/06/30 06:40:41;;;;;;;24.70;14.20;;;;;;;23.10;60.33;100471.44;6127888;23;20334;-81
2021/06/30 06:43:07;;;;;;;23.13;15.63;;;;;;;23.12;60.00;100461.94;6128347;23;20028;-81
2021/06/30 06:45:33;;;;;;;24.85;14.45;;;;;;;23.33;60.03;100468.09;6155500;23;20072;-81
2021/06/30 06:47:58;;;;;;;24.33;13.95;;;;;;;23.34;60.31;100462.34;6154990;23;20033;-81
2021/06/30 06:50:23;;;;;;;25.33;14.73;;;;;;;23.34;59.93;100467.00;6127971;23;20345;-81
2021/06/30 06:52:49;;;;;;;25.23;14.10;;;;;;;23.33;59.62;100466.19;6128078;23;20581;-81
2021/06/30 06:55:14;;;;;;;23.70;14.52;;;;;;;23.48;59.43;100471.31;6156873;23;20338;-81
2021/06/30 06:57:39;;;;;;;18.17;14.13;;;;;;;23.55;59.44;100468.47;6154429;23;20009;-81
2021/06/30 07:00:06;;;;;;;21.77;12.75;;;;;;;23.57;59.63;100469.94;6154465;23;20009;-81
2021/06/30 07:02:32;;;;;;;22.45;14.35;;;;;;;23.63;59.20;100471.78;6154386;23;20319;-81
2021/06/30 07:04:57;;;;;;;23.52;14.57;;;;;;;23.75;59.05;100466.41;6154307;23;20012;-81
2021/06/30 07:07:23;;;;;;;20.65;13.48;;;;;;;23.87;59.15;100463.69;6154193;23;20104;-81
2021/06/30 07:09:48;;;;;;;26.73;15.65;;;;;;;23.89;59.11;100471.72;6154386;23;20072;-81
2021/06/30 07:12:13;;;;;;;23.65;15.32;;;;;;;23.90;58.25;100470.63;6127465;23;20013;-81
2021/06/30 07:14:39;;;;;;;20.48;14.73;;;;;;;23.91;58.82;100473.16;6154755;23;20010;-81
2021/06/30 07:17:04;;;;;;;26.05;15.15;;;;;;;23.86;58.73;100475.75;6127465;23;20005;-81
2021/06/30 07:19:29;;;;;;;23.77;14.60;;;;;;;23.65;58.78;100484.41;6154011;23;20056;-81
2021/06/30 07:21:55;;;;;;;19.67;14.20;;;;;;;23.60;59.79;100485.13;6154739;23;20011;-81
2021/06/30 07:24:20;;;;;;;22.35;15.50;;;;;;;23.56;58.84;100486.63;6154525;23;20033;-81
2021/06/30 07:26:46;;;;;;;21.40;15.20;;;;;;;23.59;59.27;100489.75;6154298;23;20005;-81
2021/06/30 07:29:11;;;;;;;21.10;13.90;;;;;;;23.66;59.13;100484.22;6154081;23;20017;-81
2021/06/30 07:31:37;;;;;;;20.52;14.10;;;;;;;23.68;59.19;100486.72;6154373;23;20010;-81
2021/06/30 07:34:04;;;;;;;23.65;15.43;;;;;;;23.70;59.36;100492.84;6153592;23;20016;-81
2021/06/30 07:36:29;;;;;;;19.67;14.00;;;;;;;23.68;59.51;100489.44;6127216;23;20009;-81
2021/06/30 07:38:55;;;;;;;19.58;14.98;;;;;;;23.61;59.60;100490.38;6127612;23;20080;-81
2021/06/30 07:41:20;;;;;;;22.73;15.07;;;;;;;23.57;59.53;100486.41;6153891;23;20016;-81
2021/06/30 07:43:45;;;;;;;24.10;15.10;;;;;;;23.51;59.78;100487.31;6154083;23;20005;-81
2021/06/30 07:46:11;;;;;;;23.73;14.93;;;;;;;23.52;61.02;100483.50;6154657;23;20009;-81
2021/06/30 07:48:36;;;;;;;24.17;15.52;;;;;;;23.40;60.43;100488.06;6127197;23;20064;-81
2021/06/30 07:51:02;;;;;;;22.33;16.75;;;;;;;23.44;60.40;100493.94;6154329;23;20036;-81
2021/06/30 07:53:27;;;;;;;26.85;17.30;;;;;;;23.48;60.10;100484.16;6153944;23;20042;-81
2021/06/30 07:55:52;;;;;;;23.55;15.75;;;;;;;23.53;60.59;100487.06;6154011;23;20123;-81
2021/06/30 07:58:19;;;;;;;25.65;17.40;;;;;;;23.46;59.96;100492.63;6127233;23;20438;-81
2021/06/30 08:00:45;;;;;;;29.85;16.70;;;;;;;23.54;59.89;100484.13;6127543;23;20088;-81
2021/06/30 08:03:10;;;;;;;24.20;13.95;;;;;;;23.67;59.91;100493.28;6154788;23;20546;-81
2021/06/30 08:05:35;;;;;;;24.88;15.80;;;;;;;23.70;60.29;100485.44;6154418;23;20080;-81
2021/06/30 08:08:01;;;;;;;19.25;14.82;;;;;;;23.80;59.60;100493.97;6153936;23;20370;-81
2021/06/30 08:10:26;;;;;;;21.02;14.68;;;;;;;23.82;59.19;100502.84;6154262;23;20574;-81
2021/06/30 08:12:51;;;;;;;25.65;14.73;;;;;;;24.00;58.85;100498.41;6153960;23;20009;-81
2021/06/30 08:15:17;;;;;;;24.95;16.23;;;;;;;23.97;58.29;100493.38;6127964;23;20013;-81
2021/06/30 08:17:46;;;;;;;24.77;14.57;;;;;;;24.11;57.78;100485.81;6156418;23;20005;-81
2021/06/30 08:20:13;;;;;;;20.73;14.23;;;;;;;24.16;58.03;100492.28;6155520;23;20025;-81
2021/06/30 08:22:38;;;;;;;23.35;14.13;;;;;;;24.13;58.04;100491.91;6126881;23;20105;-81
2021/06/30 08:25:04;;;;;;;19.30;14.68;;;;;;;23.83;58.06;100499.03;6127058;23;20029;-81
2021/06/30 08:27:29;;;;;;;20.70;14.63;;;;;;;24.05;58.33;100493.88;6126840;23;20318;-81
2021/06/30 08:29:56;;;;;;;25.30;14.52;;;;;;;24.17;57.57;100496.69;6153742;23;20001;-81
2021/06/30 08:32:24;;;;;;;20.60;14.55;;;;;;;24.38;57.10;100498.13;6126797;23;20100;-81
2021/06/30 08:34:50;;;;;;;20.15;14.50;;;;;;;24.42;57.16;100498.50;6154479;23;20009;-81
2021/06/30 08:37:18;;;;;;;25.25;16.17;;;;;;;24.46;56.68;100492.34;6128259;23;20005;-81
2021/06/30 08:39:43;;;;;;;22.40;14.45;;;;;;;24.57;56.42;100495.34;6154736;23;20005;-81
2021/06/30 08:42:09;;;;;;;22.17;15.50;;;;;;;24.62;56.46;100493.56;6153196;23;20452;-81
2021/06/30 08:44:35;;;;;;;23.20;14.57;;;;;;;24.64;56.08;100502.44;6126822;23;20013;-81
2021/06/30 08:47:01;;;;;;;21.33;12.82;;;;;;;24.57;55.60;100498.94;6153247;23;20009;-81
2021/06/30 08:49:27;;;;;;;20.33;13.88;;;;;;;24.68;55.71;100498.13;6126909;23;20182;-81
2021/06/30 08:51:54;;;;;;;20.38;13.85;;;;;;;24.61;55.44;100500.16;6153865;23;20009;-81
2021/06/30 08:54:21;;;;;;;16.98;12.18;;;;;;;24.67;55.53;100504.72;6153512;23;20036;-81
2021/06/30 08:56:47;;;;;;;22.45;13.50;;;;;;;24.76;55.33;100502.44;6153899;23;20033;-81
2021/06/30 08:59:13;;;;;;;21.10;15.18;;;;;;;24.85;56.14;100506.53;6153000;23;20033;-81
2021/06/30 09:01:38;;;;;;;20.60;13.90;;;;;;;25.04;55.35;100503.69;6153863;23;20009;-81
2021/06/30 09:04:06;;;;;;;24.30;13.70;;;;;;;25.13;55.38;100514.19;6126891;23;20009;-81
2021/06/30 09:06:32;;;;;;;22.40;13.80;;;;;;;25.18;54.89;100510.69;6153520;23;20009;-81
2021/06/30 09:09:12;;;;;;;17.75;12.90;;;;;;;25.37;54.92;100512.25;6126333;23;20005;-81
2021/06/30 09:11:37;;;;;;;24.27;13.33;;;;;;;25.45;53.98;100514.66;6153658;23;20321;-81
2021/06/30 09:14:12;;;;;;;17.00;13.32;;;;;;;25.48;53.52;100515.25;6153021;23;20037;-81
2021/06/30 09:19:47;;;;;;;20.88;13.98;;;;;;;25.60;52.65;100522.44;6152975;23;20092;-81
2021/06/30 09:22:13;;;;;;;18.95;14.27;;;;;;;25.61;53.51;100520.50;6126292;23;20013;-81
2021/06/30 09:24:39;;;;;;;22.20;14.02;;;;;;;25.68;53.43;100522.09;6152984;23;20009;-81
2021/06/30 09:27:05;;;;;;;18.63;13.63;;;;;;;25.72;53.29;100516.94;6154609;23;20032;-81
2021/06/30 09:29:31;;;;;;;17.20;12.70;;;;;;;25.78;52.74;100515.13;6155149;23;20021;-81
2021/06/30 09:31:56;;;;;;;20.25;14.25;;;;;;;25.76;52.94;100514.53;6155310;23;20002;-81
2021/06/30 09:34:24;;;;;;;17.55;13.25;;;;;;;25.81;53.08;100522.91;6128816;23;20009;-81
2021/06/30 09:36:58;;;;;;;18.92;12.23;;;;;;;26.06;54.17;100517.97;6128806;23;20010;-81
2021/06/30 09:39:24;;;;;;;19.80;13.27;;;;;;;26.18;52.33;100525.38;6155046;23;20060;-81
2021/06/30 09:42:22;;;;;;;20.20;13.95;;;;;;;26.06;52.89;100529.00;6155612;23;20032;-81
2021/06/30 09:44:48;;;;;;;19.15;12.13;;;;;;;26.06;53.31;100534.50;6128058;23;20101;-81
2021/06/30 09:47:13;;;;;;;19.52;12.70;;;;;;;25.79;53.82;100530.56;6155600;23;20013;-81
2021/06/30 09:49:39;;;;;;;22.40;12.63;;;;;;;25.77;54.61;100528.03;6155246;23;20028;-81
2021/06/30 09:52:15;;;;;;;23.17;15.05;;;;;;;25.62;54.39;100528.56;6155645;23;20012;-81
2021/06/30 09:54:42;;;;;;;24.63;15.18;;;;;;;25.61;54.31;100523.28;6155454;23;20032;-81
2021/06/30 09:57:10;;;;;;;25.55;14.27;;;;;;;25.63;54.64;100530.22;6155320;23;20005;-81
2021/06/30 09:59:38;;;;;;;20.38;13.52;;;;;;;25.75;54.59;100523.88;6128492;23;20149;-81
2021/06/30 10:02:08;;;;;;;24.55;14.85;;;;;;;25.74;53.84;100533.19;6155333;23;20085;-81
2021/06/30 10:04:36;;;;;;;28.92;14.52;;;;;;;25.74;54.82;100524.94;6128233;23;20017;-81
2021/06/30 10:07:13;;;;;;;24.75;13.93;;;;;;;25.67;53.96;100530.56;6128465;23;20013;-81
2021/06/30 10:09:40;;;;;;;23.05;14.68;;;;;;;25.86;54.73;100531.28;6155084;23;20430;-81
2021/06/30 10:12:11;;;;;;;22.95;15.55;;;;;;;25.90;53.67;100532.50;6155256;23;20029;-81
2021/06/30 10:14:38;;;;;;;25.17;15.55;;;;;;;25.87;53.53;100535.75;6155055;23;20065;-81
2021/06/30 10:17:04;;;;;;;22.50;14.18;;;;;;;25.90;54.18;100541.59;6128186;23;20009;-81
2021/06/30 10:19:30;;;;;;;19.35;14.68;;;;;;;25.75;54.32;100538.47;6154887;23;20013;-81
2021/06/30 10:21:56;;;;;;;28.95;15.82;;;;;;;25.69;54.55;100536.69;6128062;23;20089;-81
2021/06/30 10:24:22;;;;;;;22.42;15.38;;;;;;;25.54;54.76;100539.94;6155918;23;20400;-81
2021/06/30 10:26:48;;;;;;;29.77;15.65;;;;;;;25.56;54.76;100542.41;6128271;23;20084;-81
2021/06/30 10:29:16;;;;;;;23.60;14.57;;;;;;;25.70;54.91;100534.78;6127916;23;20560;-81
2021/06/30 10:31:42;;;;;;;27.40;16.05;;;;;;;25.79;54.85;100530.56;6154869;23;20108;-81
2021/06/30 10:34:13;;;;;;;25.13;15.57;;;;;;;25.78;54.17;100526.16;6128076;23;20009;-81
2021/06/30 10:36:53;;;;;;;18.48;13.98;;;;;;;25.82;54.08;100530.13;6155416;23;20119;-81
2021/06/30 10:39:38;;;;;;;23.95;14.02;;;;;;;25.94;53.58;100527.34;6154674;23;20509;-81
2021/06/30 10:42:24;;;;;;;27.50;15.18;;;;;;;25.97;53.12;100530.44;6157616;23;20031;-81
2021/06/30 10:44:58;;;;;;;23.85;15.20;;;;;;;25.90;53.47;100524.25;6155351;23;20012;-81
2021/06/30 10:47:42;;;;;;;26.67;15.32;;;;;;;25.96;53.46;100528.78;6154733;23;20036;-81
2021/06/30 10:50:17;;;;;;;23.27;14.90;;;;;;;25.78;53.22;100531.66;6155459;23;20009;-81
2021/06/30 10:52:42;;;;;;;24.75;15.20;;;;;;;26.06;53.02;100531.75;6155496;23;20413;-81
2021/06/30 10:55:35;;;;;;;21.02;14.55;;;;;;;26.22;52.64;100526.56;6128741;23;20092;-81
2021/06/30 10:58:18;;;;;;;21.92;14.85;;;;;;;26.38;52.56;100525.75;6159994;23;20005;-81
2021/06/30 11:00:53;;;;;;;21.63;14.68;;;;;;;26.46;51.46;100519.03;6158997;23;20322;-81
2021/06/30 11:03:34;;;;;;;19.60;14.32;;;;;;;26.41;52.77;100521.69;6154394;23;20437;-81
2021/06/30 11:08:38;;;;;;;29.45;14.88;;;;;;;26.57;52.47;100512.66;6154828;23;20045;-81
2021/06/30 11:11:04;;;;;;;22.92;15.13;;;;;;;26.68;52.13;100510.91;6154347;23;20064;-81
2021/06/30 11:13:57;;;;;;;20.70;14.65;;;;;;;26.75;52.00;100508.84;6128130;23;20418;-81